sensor_id;sensor_type;location;lat;lon;timestamp;P1;durP1;ratioP1;P2;durP2;ratioP2
49440;SDS011;35317;51.978;6.296;2023-06-19T00:03:37;5.50;;;4.45;;
49440;SDS011;35317;51.978;6.296;2023-06-19T00:08:38;7.13;;;5.13;;
49440;SDS011;35317;51.978;6.296;2023-06-19T00:13:41;7.20;;;5.13;;
49440;SDS011;35317;51.978;6.296;2023-06-19T00:18:42;6.30;;;4.55;;
49440;SDS011;35317;51.978;6.296;2023-06-19T00:23:43;5.45;;;4.50;;
49440;SDS011;35317;51.978;6.296;2023-06-19T00:28:43;8.60;;;5.00;;
49440;SDS011;35317;51.978;6.296;2023-06-19T00:33:45;6.90;;;4.70;;
49440;SDS011;35317;51.978;6.296;2023-06-19T00:38:47;6.32;;;4.43;;
49440;SDS011;35317;51.978;6.296;2023-06-19T00:43:48;7.47;;;4.03;;
49440;SDS011;35317;51.978;6.296;2023-06-19T00:48:49;5.18;;;4.30;;
49440;SDS011;35317;51.978;6.296;2023-06-19T00:53:50;5.32;;;4.13;;
49440;SDS011;35317;51.978;6.296;2023-06-19T00:58:51;4.78;;;4.18;;
49440;SDS011;35317;51.978;6.296;2023-06-19T01:03:53;5.07;;;4.13;;
49440;SDS011;35317;51.978;6.296;2023-06-19T01:09:05;8.23;;;5.35;;
49440;SDS011;35317;51.978;6.296;2023-06-19T01:14:09;4.93;;;3.95;;
49440;SDS011;35317;51.978;6.296;2023-06-19T01:19:19;4.38;;;3.40;;
49440;SDS011;35317;51.978;6.296;2023-06-19T01:24:21;4.70;;;3.63;;
49440;SDS011;35317;51.978;6.296;2023-06-19T01:29:22;5.07;;;3.75;;
49440;SDS011;35317;51.978;6.296;2023-06-19T01:34:22;5.05;;;3.95;;
49440;SDS011;35317;51.978;6.296;2023-06-19T01:39:27;6.20;;;3.70;;
49440;SDS011;35317;51.978;6.296;2023-06-19T01:44:28;5.68;;;3.53;;
49440;SDS011;35317;51.978;6.296;2023-06-19T01:49:29;5.85;;;3.80;;
49440;SDS011;35317;51.978;6.296;2023-06-19T01:54:30;4.72;;;3.78;;
49440;SDS011;35317;51.978;6.296;2023-06-19T01:59:30;5.40;;;3.70;;
49440;SDS011;35317;51.978;6.296;2023-06-19T02:04:32;4.93;;;3.53;;
49440;SDS011;35317;51.978;6.296;2023-06-19T02:09:33;5.30;;;3.80;;
49440;SDS011;35317;51.978;6.296;2023-06-19T02:14:34;6.93;;;3.65;;
49440;SDS011;35317;51.978;6.296;2023-06-19T02:19:35;5.55;;;3.80;;
49440;SDS011;35317;51.978;6.296;2023-06-19T02:24:35;4.85;;;3.60;;
49440;SDS011;35317;51.978;6.296;2023-06-19T02:29:37;4.40;;;3.53;;
49440;SDS011;35317;51.978;6.296;2023-06-19T02:34:38;4.25;;;3.47;;
49440;SDS011;35317;51.978;6.296;2023-06-19T02:39:38;4.38;;;3.38;;
49440;SDS011;35317;51.978;6.296;2023-06-19T02:44:39;6.45;;;3.50;;
49440;SDS011;35317;51.978;6.296;2023-06-19T02:49:40;4.90;;;3.50;;
49440;SDS011;35317;51.978;6.296;2023-06-19T02:54:41;5.18;;;3.97;;
49440;SDS011;35317;51.978;6.296;2023-06-19T02:59:42;4.22;;;3.15;;
49440;SDS011;35317;51.978;6.296;2023-06-19T03:04:43;4.45;;;3.20;;
49440;SDS011;35317;51.978;6.296;2023-06-19T03:09:44;5.80;;;3.10;;
49440;SDS011;35317;51.978;6.296;2023-06-19T03:14:45;5.60;;;3.40;;
49440;SDS011;35317;51.978;6.296;2023-06-19T03:19:46;4.05;;;3.13;;
49440;SDS011;35317;51.978;6.296;2023-06-19T03:24:47;4.68;;;3.40;;
49440;SDS011;35317;51.978;6.296;2023-06-19T03:29:48;3.92;;;2.78;;
49440;SDS011;35317;51.978;6.296;2023-06-19T03:34:48;3.78;;;2.90;;
49440;SDS011;35317;51.978;6.296;2023-06-19T03:39:49;4.15;;;3.25;;
49440;SDS011;35317;51.978;6.296;2023-06-19T03:44:50;4.13;;;2.80;;
49440;SDS011;35317;51.978;6.296;2023-06-19T03:49:51;3.70;;;2.50;;
49440;SDS011;35317;51.978;6.296;2023-06-19T03:54:51;5.35;;;2.13;;
49440;SDS011;35317;51.978;6.296;2023-06-19T03:59:52;3.00;;;2.28;;
49440;SDS011;35317;51.978;6.296;2023-06-19T04:04:54;3.33;;;2.22;;
49440;SDS011;35317;51.978;6.296;2023-06-19T04:09:54;3.25;;;2.47;;
49440;SDS011;35317;51.978;6.296;2023-06-19T04:14:55;3.60;;;2.60;;
49440;SDS011;35317;51.978;6.296;2023-06-19T04:19:56;2.75;;;2.00;;
49440;SDS011;35317;51.978;6.296;2023-06-19T04:24:57;2.70;;;1.85;;
49440;SDS011;35317;51.978;6.296;2023-06-19T04:29:57;3.10;;;2.05;;
49440;SDS011;35317;51.978;6.296;2023-06-19T04:34:58;2.92;;;1.65;;
49440;SDS011;35317;51.978;6.296;2023-06-19T04:39:59;2.20;;;1.58;;
49440;SDS011;35317;51.978;6.296;2023-06-19T04:45:00;2.70;;;2.00;;
49440;SDS011;35317;51.978;6.296;2023-06-19T04:50:01;2.97;;;1.88;;
49440;SDS011;35317;51.978;6.296;2023-06-19T04:55:01;3.95;;;2.42;;
49440;SDS011;35317;51.978;6.296;2023-06-19T05:00:03;3.00;;;2.03;;
49440;SDS011;35317;51.978;6.296;2023-06-19T05:05:15;4.28;;;2.15;;
49440;SDS011;35317;51.978;6.296;2023-06-19T05:22:54;4.32;;;2.65;;
49440;SDS011;35317;51.978;6.296;2023-06-19T05:28:09;2.65;;;2.13;;
49440;SDS011;35317;51.978;6.296;2023-06-19T05:33:12;4.63;;;2.58;;
49440;SDS011;35317;51.978;6.296;2023-06-19T05:38:22;3.10;;;2.53;;
49440;SDS011;35317;51.978;6.296;2023-06-19T05:43:26;4.82;;;2.42;;
49440;SDS011;35317;51.978;6.296;2023-06-19T05:48:27;3.17;;;2.63;;
49440;SDS011;35317;51.978;6.296;2023-06-19T05:53:27;6.03;;;3.10;;
49440;SDS011;35317;51.978;6.296;2023-06-19T05:58:31;5.15;;;2.85;;
49440;SDS011;35317;51.978;6.296;2023-06-19T06:03:31;3.28;;;2.90;;
49440;SDS011;35317;51.978;6.296;2023-06-19T06:08:32;5.05;;;2.92;;
49440;SDS011;35317;51.978;6.296;2023-06-19T06:13:33;4.82;;;3.60;;
49440;SDS011;35317;51.978;6.296;2023-06-19T06:18:34;4.82;;;3.75;;
49440;SDS011;35317;51.978;6.296;2023-06-19T06:23:35;4.05;;;3.35;;
49440;SDS011;35317;51.978;6.296;2023-06-19T06:28:36;5.80;;;4.15;;
49440;SDS011;35317;51.978;6.296;2023-06-19T06:33:38;6.20;;;3.53;;
49440;SDS011;35317;51.978;6.296;2023-06-19T06:38:39;4.72;;;3.70;;
49440;SDS011;35317;51.978;6.296;2023-06-19T06:43:40;5.20;;;4.22;;
49440;SDS011;35317;51.978;6.296;2023-06-19T06:48:42;4.90;;;4.40;;
49440;SDS011;35317;51.978;6.296;2023-06-19T06:53:43;7.05;;;4.25;;
49440;SDS011;35317;51.978;6.296;2023-06-19T06:58:44;4.60;;;3.78;;
49440;SDS011;35317;51.978;6.296;2023-06-19T07:03:47;5.68;;;3.47;;
49440;SDS011;35317;51.978;6.296;2023-06-19T07:08:47;5.63;;;4.40;;
49440;SDS011;35317;51.978;6.296;2023-06-19T07:13:48;5.18;;;3.90;;
49440;SDS011;35317;51.978;6.296;2023-06-19T07:18:53;5.97;;;4.30;;
49440;SDS011;35317;51.978;6.296;2023-06-19T07:37:03;5.55;;;4.72;;
49440;SDS011;35317;51.978;6.296;2023-06-19T07:42:27;7.30;;;4.00;;
49440;SDS011;35317;51.978;6.296;2023-06-19T07:58:38;5.20;;;4.53;;
49440;SDS011;35317;51.978;6.296;2023-06-19T08:09:53;4.38;;;3.97;;
49440;SDS011;35317;51.978;6.296;2023-06-19T08:15:03;6.60;;;4.03;;
49440;SDS011;35317;51.978;6.296;2023-06-19T08:21:08;4.20;;;3.80;;
49440;SDS011;35317;51.978;6.296;2023-06-19T08:26:09;5.40;;;3.80;;
49440;SDS011;35317;51.978;6.296;2023-06-19T08:31:10;5.70;;;3.63;;
49440;SDS011;35317;51.978;6.296;2023-06-19T08:36:12;7.45;;;4.18;;
49440;SDS011;35317;51.978;6.296;2023-06-19T08:41:38;7.90;;;6.50;;
49440;SDS011;35317;51.978;6.296;2023-06-19T08:46:39;7.68;;;6.13;;
49440;SDS011;35317;51.978;6.296;2023-06-19T08:51:41;8.82;;;6.60;;
49440;SDS011;35317;51.978;6.296;2023-06-19T08:56:42;6.95;;;6.25;;
49440;SDS011;35317;51.978;6.296;2023-06-19T09:01:49;7.45;;;6.00;;
49440;SDS011;35317;51.978;6.296;2023-06-19T09:06:54;8.60;;;6.18;;
49440;SDS011;35317;51.978;6.296;2023-06-19T09:12:05;7.65;;;6.18;;
49440;SDS011;35317;51.978;6.296;2023-06-19T09:17:19;9.07;;;7.43;;
49440;SDS011;35317;51.978;6.296;2023-06-19T09:22:21;10.40;;;7.32;;
49440;SDS011;35317;51.978;6.296;2023-06-19T09:27:23;7.00;;;6.28;;
49440;SDS011;35317;51.978;6.296;2023-06-19T09:38:07;7.88;;;6.30;;
49440;SDS011;35317;51.978;6.296;2023-06-19T09:43:19;7.53;;;6.60;;
49440;SDS011;35317;51.978;6.296;2023-06-19T09:49:11;8.48;;;7.20;;
49440;SDS011;35317;51.978;6.296;2023-06-19T09:54:13;9.63;;;6.70;;
49440;SDS011;35317;51.978;6.296;2023-06-19T09:59:17;14.05;;;8.02;;
49440;SDS011;35317;51.978;6.296;2023-06-19T10:09:56;8.02;;;6.55;;
49440;SDS011;35317;51.978;6.296;2023-06-19T10:20:25;8.02;;;6.40;;
49440;SDS011;35317;51.978;6.296;2023-06-19T10:25:33;7.35;;;5.80;;
49440;SDS011;35317;51.978;6.296;2023-06-19T10:30:38;8.30;;;6.55;;
49440;SDS011;35317;51.978;6.296;2023-06-19T10:35:39;8.45;;;6.57;;
49440;SDS011;35317;51.978;6.296;2023-06-19T10:40:41;7.65;;;6.78;;
49440;SDS011;35317;51.978;6.296;2023-06-19T10:45:44;8.05;;;6.30;;
49440;SDS011;35317;51.978;6.296;2023-06-19T10:50:45;9.05;;;8.10;;
49440;SDS011;35317;51.978;6.296;2023-06-19T10:55:46;10.18;;;8.85;;
49440;SDS011;35317;51.978;6.296;2023-06-19T11:00:47;9.43;;;8.00;;
49440;SDS011;35317;51.978;6.296;2023-06-19T11:05:48;8.90;;;7.20;;
49440;SDS011;35317;51.978;6.296;2023-06-19T11:10:50;9.90;;;7.80;;
49440;SDS011;35317;51.978;6.296;2023-06-19T11:15:51;7.80;;;6.95;;
49440;SDS011;35317;51.978;6.296;2023-06-19T11:20:52;9.45;;;8.38;;
49440;SDS011;35317;51.978;6.296;2023-06-19T11:25:53;8.82;;;7.20;;
49440;SDS011;35317;51.978;6.296;2023-06-19T11:31:01;10.40;;;7.38;;
49440;SDS011;35317;51.978;6.296;2023-06-19T11:36:03;9.32;;;7.50;;
49440;SDS011;35317;51.978;6.296;2023-06-19T11:41:04;9.32;;;7.70;;
49440;SDS011;35317;51.978;6.296;2023-06-19T11:46:07;9.52;;;8.00;;
49440;SDS011;35317;51.978;6.296;2023-06-19T11:51:08;9.30;;;7.88;;
49440;SDS011;35317;51.978;6.296;2023-06-19T11:56:09;8.70;;;6.65;;
49440;SDS011;35317;51.978;6.296;2023-06-19T12:01:10;8.52;;;6.90;;
49440;SDS011;35317;51.978;6.296;2023-06-19T12:06:11;9.85;;;8.32;;
49440;SDS011;35317;51.978;6.296;2023-06-19T12:11:11;9.50;;;7.47;;
49440;SDS011;35317;51.978;6.296;2023-06-19T12:16:13;9.48;;;8.00;;
49440;SDS011;35317;51.978;6.296;2023-06-19T12:21:14;8.95;;;7.40;;
49440;SDS011;35317;51.978;6.296;2023-06-19T12:26:15;10.23;;;6.82;;
49440;SDS011;35317;51.978;6.296;2023-06-19T12:31:17;10.55;;;9.43;;
49440;SDS011;35317;51.978;6.296;2023-06-19T12:36:18;13.23;;;9.45;;
49440;SDS011;35317;51.978;6.296;2023-06-19T12:41:22;8.30;;;6.85;;
49440;SDS011;35317;51.978;6.296;2023-06-19T12:46:23;12.07;;;9.32;;
49440;SDS011;35317;51.978;6.296;2023-06-19T12:51:24;13.02;;;9.38;;
49440;SDS011;35317;51.978;6.296;2023-06-19T12:56:24;10.38;;;8.02;;
49440;SDS011;35317;51.978;6.296;2023-06-19T13:01:25;13.60;;;8.95;;
49440;SDS011;35317;51.978;6.296;2023-06-19T13:06:26;10.77;;;8.18;;
49440;SDS011;35317;51.978;6.296;2023-06-19T13:11:27;11.15;;;9.10;;
49440;SDS011;35317;51.978;6.296;2023-06-19T13:16:30;8.00;;;7.18;;
49440;SDS011;35317;51.978;6.296;2023-06-19T13:21:31;11.13;;;9.68;;
49440;SDS011;35317;51.978;6.296;2023-06-19T13:26:32;8.50;;;6.88;;
49440;SDS011;35317;51.978;6.296;2023-06-19T13:31:33;11.18;;;7.97;;
49440;SDS011;35317;51.978;6.296;2023-06-19T13:36:34;8.27;;;6.82;;
49440;SDS011;35317;51.978;6.296;2023-06-19T13:41:34;8.45;;;6.45;;
49440;SDS011;35317;51.978;6.296;2023-06-19T13:46:35;10.20;;;8.60;;
49440;SDS011;35317;51.978;6.296;2023-06-19T13:51:37;12.10;;;7.57;;
49440;SDS011;35317;51.978;6.296;2023-06-19T13:56:38;9.60;;;7.50;;
49440;SDS011;35317;51.978;6.296;2023-06-19T14:01:40;8.38;;;7.45;;
49440;SDS011;35317;51.978;6.296;2023-06-19T14:06:41;8.50;;;6.10;;
49440;SDS011;35317;51.978;6.296;2023-06-19T14:11:43;7.28;;;5.55;;
49440;SDS011;35317;51.978;6.296;2023-06-19T14:16:44;8.15;;;6.07;;
49440;SDS011;35317;51.978;6.296;2023-06-19T14:21:45;7.63;;;5.68;;
49440;SDS011;35317;51.978;6.296;2023-06-19T14:26:46;7.80;;;5.55;;
49440;SDS011;35317;51.978;6.296;2023-06-19T14:31:46;7.72;;;6.07;;
49440;SDS011;35317;51.978;6.296;2023-06-19T14:36:47;6.82;;;4.78;;
49440;SDS011;35317;51.978;6.296;2023-06-19T14:41:48;8.45;;;5.97;;
49440;SDS011;35317;51.978;6.296;2023-06-19T14:46:49;6.00;;;5.00;;
49440;SDS011;35317;51.978;6.296;2023-06-19T14:51:50;7.20;;;5.25;;
49440;SDS011;35317;51.978;6.296;2023-06-19T14:56:50;5.95;;;5.03;;
49440;SDS011;35317;51.978;6.296;2023-06-19T15:01:51;7.00;;;4.85;;
49440;SDS011;35317;51.978;6.296;2023-06-19T15:06:52;7.60;;;5.05;;
49440;SDS011;35317;51.978;6.296;2023-06-19T15:11:53;8.20;;;4.72;;
49440;SDS011;35317;51.978;6.296;2023-06-19T15:16:54;9.00;;;5.13;;
49440;SDS011;35317;51.978;6.296;2023-06-19T15:21:54;6.82;;;4.80;;
49440;SDS011;35317;51.978;6.296;2023-06-19T15:26:55;6.38;;;5.22;;
49440;SDS011;35317;51.978;6.296;2023-06-19T15:31:58;8.38;;;6.00;;
49440;SDS011;35317;51.978;6.296;2023-06-19T15:36:58;6.82;;;4.60;;
49440;SDS011;35317;51.978;6.296;2023-06-19T15:41:59;7.95;;;5.60;;
49440;SDS011;35317;51.978;6.296;2023-06-19T15:47:00;8.77;;;5.60;;
49440;SDS011;35317;51.978;6.296;2023-06-19T15:52:01;5.68;;;4.57;;
49440;SDS011;35317;51.978;6.296;2023-06-19T15:57:02;6.72;;;5.20;;
49440;SDS011;35317;51.978;6.296;2023-06-19T16:02:03;6.75;;;4.95;;
49440;SDS011;35317;51.978;6.296;2023-06-19T16:07:04;6.60;;;4.60;;
49440;SDS011;35317;51.978;6.296;2023-06-19T16:12:05;6.43;;;5.32;;
49440;SDS011;35317;51.978;6.296;2023-06-19T16:17:06;6.85;;;4.47;;
49440;SDS011;35317;51.978;6.296;2023-06-19T16:22:07;5.43;;;4.32;;
49440;SDS011;35317;51.978;6.296;2023-06-19T16:27:10;5.63;;;4.95;;
49440;SDS011;35317;51.978;6.296;2023-06-19T16:32:11;6.35;;;4.93;;
49440;SDS011;35317;51.978;6.296;2023-06-19T16:37:12;6.13;;;5.07;;
49440;SDS011;35317;51.978;6.296;2023-06-19T16:42:12;15.88;;;5.50;;
49440;SDS011;35317;51.978;6.296;2023-06-19T16:52:16;5.97;;;5.20;;
49440;SDS011;35317;51.978;6.296;2023-06-19T16:57:17;7.05;;;4.40;;
49440;SDS011;35317;51.978;6.296;2023-06-19T17:02:18;4.90;;;4.00;;
49440;SDS011;35317;51.978;6.296;2023-06-19T17:07:18;9.23;;;5.63;;
49440;SDS011;35317;51.978;6.296;2023-06-19T17:12:19;7.63;;;5.10;;
49440;SDS011;35317;51.978;6.296;2023-06-19T17:17:20;5.82;;;4.78;;
49440;SDS011;35317;51.978;6.296;2023-06-19T17:22:21;5.68;;;5.07;;
49440;SDS011;35317;51.978;6.296;2023-06-19T17:27:21;6.35;;;4.70;;
49440;SDS011;35317;51.978;6.296;2023-06-19T17:32:22;6.53;;;4.47;;
49440;SDS011;35317;51.978;6.296;2023-06-19T17:37:23;7.15;;;5.22;;
49440;SDS011;35317;51.978;6.296;2023-06-19T17:42:24;5.57;;;4.43;;
49440;SDS011;35317;51.978;6.296;2023-06-19T17:47:25;6.20;;;4.65;;
49440;SDS011;35317;51.978;6.296;2023-06-19T17:52:33;11.68;;;9.05;;
49440;SDS011;35317;51.978;6.296;2023-06-19T17:57:34;8.10;;;5.82;;
49440;SDS011;35317;51.978;6.296;2023-06-19T18:02:36;5.65;;;4.57;;
49440;SDS011;35317;51.978;6.296;2023-06-19T18:07:37;10.45;;;7.03;;
49440;SDS011;35317;51.978;6.296;2023-06-19T18:12:37;8.10;;;5.40;;
49440;SDS011;35317;51.978;6.296;2023-06-19T18:17:38;13.10;;;8.48;;
49440;SDS011;35317;51.978;6.296;2023-06-19T18:22:39;12.13;;;8.80;;
49440;SDS011;35317;51.978;6.296;2023-06-19T18:27:40;18.10;;;10.45;;
49440;SDS011;35317;51.978;6.296;2023-06-19T18:32:41;13.65;;;8.80;;
49440;SDS011;35317;51.978;6.296;2023-06-19T18:37:41;8.57;;;6.13;;
49440;SDS011;35317;51.978;6.296;2023-06-19T18:42:42;5.68;;;4.80;;
49440;SDS011;35317;51.978;6.296;2023-06-19T18:47:43;6.10;;;4.78;;
49440;SDS011;35317;51.978;6.296;2023-06-19T18:52:44;6.55;;;4.88;;
49440;SDS011;35317;51.978;6.296;2023-06-19T18:57:45;7.85;;;5.07;;
49440;SDS011;35317;51.978;6.296;2023-06-19T19:07:50;7.35;;;5.47;;
49440;SDS011;35317;51.978;6.296;2023-06-19T19:12:50;11.48;;;5.15;;
49440;SDS011;35317;51.978;6.296;2023-06-19T19:17:54;5.95;;;4.75;;
49440;SDS011;35317;51.978;6.296;2023-06-19T19:22:56;9.32;;;5.75;;
49440;SDS011;35317;51.978;6.296;2023-06-19T19:28:00;8.50;;;5.75;;
49440;SDS011;35317;51.978;6.296;2023-06-19T19:33:04;5.50;;;4.78;;
49440;SDS011;35317;51.978;6.296;2023-06-19T19:38:05;6.40;;;5.30;;
49440;SDS011;35317;51.978;6.296;2023-06-19T19:54:33;11.93;;;5.88;;
49440;SDS011;35317;51.978;6.296;2023-06-19T19:59:35;8.40;;;5.93;;
49440;SDS011;35317;51.978;6.296;2023-06-19T20:10:20;8.25;;;5.70;;
49440;SDS011;35317;51.978;6.296;2023-06-19T20:16:15;9.15;;;6.15;;
49440;SDS011;35317;51.978;6.296;2023-06-19T20:26:45;10.02;;;5.93;;
49440;SDS011;35317;51.978;6.296;2023-06-19T20:37:18;10.18;;;6.60;;
49440;SDS011;35317;51.978;6.296;2023-06-19T20:49:02;10.43;;;6.90;;
49440;SDS011;35317;51.978;6.296;2023-06-19T20:54:03;8.82;;;6.97;;
49440;SDS011;35317;51.978;6.296;2023-06-19T20:59:04;10.27;;;6.95;;
49440;SDS011;35317;51.978;6.296;2023-06-19T21:04:06;13.45;;;7.20;;
49440;SDS011;35317;51.978;6.296;2023-06-19T21:09:06;10.88;;;7.50;;
49440;SDS011;35317;51.978;6.296;2023-06-19T21:14:08;10.82;;;7.28;;
49440;SDS011;35317;51.978;6.296;2023-06-19T21:19:09;8.30;;;6.68;;
49440;SDS011;35317;51.978;6.296;2023-06-19T21:24:10;8.68;;;6.55;;
49440;SDS011;35317;51.978;6.296;2023-06-19T21:29:10;10.73;;;6.93;;
49440;SDS011;35317;51.978;6.296;2023-06-19T21:34:12;9.85;;;7.18;;
49440;SDS011;35317;51.978;6.296;2023-06-19T21:39:13;12.80;;;7.28;;
49440;SDS011;35317;51.978;6.296;2023-06-19T21:44:14;10.05;;;6.20;;
49440;SDS011;35317;51.978;6.296;2023-06-19T21:49:15;8.43;;;6.75;;
49440;SDS011;35317;51.978;6.296;2023-06-19T21:54:16;9.48;;;6.72;;
49440;SDS011;35317;51.978;6.296;2023-06-19T21:59:17;9.80;;;6.75;;
49440;SDS011;35317;51.978;6.296;2023-06-19T22:04:18;8.40;;;6.57;;
49440;SDS011;35317;51.978;6.296;2023-06-19T22:09:18;8.82;;;6.40;;
49440;SDS011;35317;51.978;6.296;2023-06-19T22:14:19;9.30;;;6.57;;
49440;SDS011;35317;51.978;6.296;2023-06-19T22:19:21;9.73;;;6.57;;
49440;SDS011;35317;51.978;6.296;2023-06-19T22:24:23;8.38;;;6.35;;
49440;SDS011;35317;51.978;6.296;2023-06-19T22:29:24;10.98;;;5.93;;
49440;SDS011;35317;51.978;6.296;2023-06-19T22:34:25;8.07;;;5.43;;
49440;SDS011;35317;51.978;6.296;2023-06-19T22:39:26;8.27;;;5.80;;
49440;SDS011;35317;51.978;6.296;2023-06-19T22:44:27;7.78;;;5.55;;
49440;SDS011;35317;51.978;6.296;2023-06-19T22:49:28;11.05;;;5.75;;
49440;SDS011;35317;51.978;6.296;2023-06-19T22:54:29;9.43;;;5.70;;
49440;SDS011;35317;51.978;6.296;2023-06-19T22:59:30;7.95;;;5.72;;
49440;SDS011;35317;51.978;6.296;2023-06-19T23:04:30;7.38;;;5.10;;
49440;SDS011;35317;51.978;6.296;2023-06-19T23:09:31;11.40;;;5.22;;
49440;SDS011;35317;51.978;6.296;2023-06-19T23:14:32;7.28;;;5.15;;
49440;SDS011;35317;51.978;6.296;2023-06-19T23:19:33;9.23;;;5.43;;
49440;SDS011;35317;51.978;6.296;2023-06-19T23:24:34;6.13;;;4.93;;
49440;SDS011;35317;51.978;6.296;2023-06-19T23:29:35;7.22;;;4.90;;
49440;SDS011;35317;51.978;6.296;2023-06-19T23:34:36;6.97;;;4.60;;
49440;SDS011;35317;51.978;6.296;2023-06-19T23:39:37;8.60;;;4.80;;
49440;SDS011;35317;51.978;6.296;2023-06-19T23:44:37;6.60;;;4.60;;
49440;SDS011;35317;51.978;6.296;2023-06-19T23:49:38;8.25;;;4.93;;
49440;SDS011;35317;51.978;6.296;2023-06-19T23:54:40;11.02;;;4.82;;
49440;SDS011;35317;51.978;6.296;2023-06-19T23:59:41;6.82;;;4.45;;
